aviador You're here:

KVTI Decoded Metar

VINTON in IA, USA
Report Time2017-09-21 21:15:00
UTC Time2017-09-21 21:16:55
Flight Rules vfr VFR
Wind180° at 13 Gusting to 19 kt
W.Decomp.*RWY 16: 12.3 kt HW 4.2 kt RCW
RWY 09: 0.2 kt HW 13.0 kt RCW
W.Rank180° ranks 3
Current wind is above 180° avg. (7.9)
Visibility9999 m
Phenomena:N/A
Clouds:N/A
Expected CloudBase > 6,400 ft AGL from Temp-Dew spread
CeilingNone
Temp35°C (ISA +22)
Dew Point19°C (39% RH)
Heat Index36.9°C
AAT33.5°C
QNH1012 hPa
Density Alt3,619 ft
Elevation837 ft
Report Wrong Elevation
Raw Report
KVTI 212115Z AUTO 18013G19KT 10SM CLR 35/19 A2988 RMK AO2
T03470193=

Extra information for KVTI:More info

Metar Taf Metar & Taf Last 4 Metars F.Rules Stats Wind Profile Meteogram Temp Stats Airport Information Weather charts Add Link Nearby VenuesMetar ALERT Operation Metar Decoded Social comments

AIRNAV info for KVTI